Monroe City, Missouri
Current Conditions -  °F | °C
As of 9:15 AM on Saturday 20 Dec 2014 (Local Time) from KHAE Reporting Station
Haze Haze  
Wind Chill: -1°   Ceiling: 2500
Heat Index:   Visibility: 5mi
Dew Point: -1°   Wind: 7mph
Humidity: 81%   Direction: 160°SSE
Pressure: 30.25"   Gusts: NA
Location:  39.65°N, 91.73°W
Report Text: KHAE 201515Z AUTO 16006KT 5SM HZ SCT007 OVC025 02/M01 A3025 RMK AO2
Loading
Personal Weather Stations






























Interactive Weather Map New forecast layout! Learn more

10-Day Weather Forecast

Advertisements
Track Severe Weather on mobile